Time;durP1;ratioP1;P1;durP2;ratioP2;P2;SDS_P1;SDS_P2;PMS_P1;PMS_P2;Temp;Humidity;BMP_temperature;BMP_pressure;BME280_temperature;BME280_humidity;BME280_pressure;Samples;Min_cycle;Max_cycle;Signal;HPM_P1;HPM_P2
2021/10/25 00:02:23;;;;;;;15.63;12.33;;;7.20;99.90;;;;;;5033329;28;20561;-56
2021/10/25 00:04:49;;;;;;;12.60;11.30;;;7.20;99.90;;;;;;5033345;28;20236;-55
2021/10/25 00:07:14;;;;;;;11.67;10.50;;;7.20;99.90;;;;;;5033489;28;20413;-58
2021/10/25 00:09:40;;;;;;;15.43;12.13;;;7.10;99.90;;;;;;5020543;28;20215;-56
2021/10/25 00:12:06;;;;;;;14.13;12.67;;;7.20;99.90;;;;;;5013569;28;20200;-57
2021/10/25 00:14:31;;;;;;;13.30;12.00;;;7.30;99.90;;;;;;5013868;28;20211;-59
2021/10/25 00:16:57;;;;;;;13.43;12.10;;;7.30;99.90;;;;;;5013926;28;20200;-58
2021/10/25 00:19:23;;;;;;;12.50;11.30;;;7.30;99.90;;;;;;5013729;28;20251;-56
2021/10/25 00:21:49;;;;;;;13.70;11.50;;;7.40;99.90;;;;;;5013770;28;20196;-59
2021/10/25 00:24:15;;;;;;;13.70;12.17;;;7.30;99.90;;;;;;5013398;28;20169;-58
2021/10/25 00:26:41;;;;;;;12.53;11.17;;;7.30;99.90;;;;;;5013607;28;20900;-55
2021/10/25 00:29:07;;;;;;;14.10;12.80;;;7.30;99.90;;;;;;5013543;28;20799;-56
2021/10/25 00:31:32;;;;;;;12.97;10.33;;;7.30;99.90;;;;;;5012959;28;20568;-58
2021/10/25 00:33:58;;;;;;;12.07;10.90;;;7.30;99.90;;;;;;5013381;28;20181;-58
2021/10/25 00:36:24;;;;;;;12.57;11.27;;;7.40;99.90;;;;;;5013646;28;20196;-57
2021/10/25 00:38:49;;;;;;;12.47;11.27;;;7.40;99.90;;;;;;5013473;28;20420;-57
2021/10/25 00:41:15;;;;;;;11.23;10.13;;;7.40;99.90;;;;;;5013114;28;20207;-58
2021/10/25 00:43:41;;;;;;;12.40;11.10;;;7.40;99.90;;;;;;5013571;28;20173;-57
2021/10/25 00:46:08;;;;;;;11.57;10.37;;;7.40;99.90;;;;;;5013871;28;20408;-55
2021/10/25 00:48:34;;;;;;;12.90;11.00;;;7.40;99.90;;;;;;5013523;28;20176;-58
2021/10/25 00:51:01;;;;;;;11.70;10.50;;;7.50;99.90;;;;;;5016569;28;20432;-57
2021/10/25 00:53:27;;;;;;;10.97;9.77;;;7.50;99.90;;;;;;5032930;28;20461;-58
2021/10/25 00:55:53;;;;;;;11.20;10.00;;;7.40;99.90;;;;;;5032746;28;20943;-56
2021/10/25 00:58:19;;;;;;;10.93;9.83;;;7.30;99.90;;;;;;5015711;28;20780;-58
2021/10/25 01:00:44;;;;;;;11.10;10.10;;;7.40;99.90;;;;;;4994045;28;20436;-58
2021/10/25 01:03:10;;;;;;;11.10;10.07;;;7.40;99.90;;;;;;4993628;28;20239;-57
2021/10/25 01:05:36;;;;;;;10.13;8.80;;;7.30;99.90;;;;;;4994330;28;20223;-58
2021/10/25 01:08:03;;;;;;;12.53;11.20;;;7.40;99.90;;;;;;4993620;28;20565;-57
2021/10/25 01:10:30;;;;;;;11.17;9.40;;;7.30;99.90;;;;;;5012128;28;20180;-58
2021/10/25 01:12:57;;;;;;;11.13;10.10;;;7.30;99.90;;;;;;5012942;28;20410;-56
2021/10/25 01:15:23;;;;;;;10.87;9.77;;;7.20;99.90;;;;;;5013152;28;20407;-59
2021/10/25 01:17:57;;;;;;;9.63;8.73;;;7.30;99.90;;;;;;5013534;28;20415;-57
2021/10/25 01:20:23;;;;;;;9.90;8.90;;;7.40;99.90;;;;;;5013019;28;20403;-59
2021/10/25 01:22:49;;;;;;;10.13;9.17;;;7.40;99.90;;;;;;5013200;28;20849;-56
2021/10/25 01:25:15;;;;;;;10.27;9.27;;;7.40;99.90;;;;;;5012925;28;20486;-56
2021/10/25 01:27:41;;;;;;;11.30;9.10;;;7.30;99.90;;;;;;5013140;28;20163;-58
2021/10/25 01:30:07;;;;;;;9.30;8.40;;;7.30;99.90;;;;;;5012903;28;20176;-58
2021/10/25 01:32:33;;;;;;;9.53;8.70;;;7.30;99.90;;;;;;5012795;28;20189;-57
2021/10/25 01:34:59;;;;;;;10.40;9.23;;;7.30;99.90;;;;;;5013017;28;20411;-57
2021/10/25 01:37:24;;;;;;;9.67;8.67;;;7.40;99.90;;;;;;5012868;28;20971;-58
2021/10/25 01:39:50;;;;;;;9.93;9.03;;;7.30;99.90;;;;;;5012634;28;20187;-57
2021/10/25 01:42:16;;;;;;;12.63;10.80;;;7.30;99.90;;;;;;5014148;28;20204;-55
2021/10/25 01:44:42;;;;;;;10.40;9.30;;;7.30;99.90;;;;;;5016281;28;20251;-59
2021/10/25 01:47:08;;;;;;;11.97;9.10;;;7.30;99.90;;;;;;5016485;28;20190;-58
2021/10/25 01:49:33;;;;;;;8.80;7.90;;;7.30;99.90;;;;;;5015123;28;20177;-56
2021/10/25 01:52:00;;;;;;;10.77;9.77;;;7.20;99.90;;;;;;5016737;28;21014;-57
2021/10/25 01:54:26;;;;;;;9.57;8.60;;;7.20;99.90;;;;;;5015967;28;20568;-55
2021/10/25 01:56:51;;;;;;;11.17;10.10;;;7.10;99.90;;;;;;5033647;28;20489;-59
2021/10/25 01:59:17;;;;;;;11.83;10.63;;;7.10;99.90;;;;;;5035904;28;20167;-59
2021/10/25 02:01:43;;;;;;;11.60;10.50;;;7.20;99.90;;;;;;5035580;28;20611;-59
2021/10/25 02:04:09;;;;;;;10.57;9.60;;;7.10;99.90;;;;;;5035845;28;20218;-57
2021/10/25 02:06:35;;;;;;;9.03;8.13;;;7.10;99.90;;;;;;5035824;28;20503;-58
2021/10/25 02:09:04;;;;;;;11.20;10.20;;;7.10;99.90;;;;;;5017789;28;20707;-60
2021/10/25 02:11:30;;;;;;;10.73;9.63;;;7.10;99.90;;;;;;5015386;28;20191;-58
2021/10/25 02:13:56;;;;;;;10.17;9.20;;;7.10;99.90;;;;;;5015646;28;20897;-57
2021/10/25 02:16:21;;;;;;;12.60;10.47;;;7.10;99.90;;;;;;5015538;28;20509;-59
2021/10/25 02:18:47;;;;;;;12.73;10.77;;;7.10;99.90;;;;;;5015581;28;20848;-59
2021/10/25 02:21:13;;;;;;;9.70;8.80;;;7.10;99.90;;;;;;5015661;28;20193;-57
2021/10/25 02:23:39;;;;;;;9.83;8.73;;;7.10;99.90;;;;;;5015697;28;20176;-58
2021/10/25 02:26:05;;;;;;;11.13;9.97;;;7.10;99.90;;;;;;5015165;28;20411;-58
2021/10/25 02:28:31;;;;;;;12.03;9.50;;;7.10;99.90;;;;;;5015565;28;20414;-59
2021/10/25 02:30:57;;;;;;;8.53;7.73;;;7.10;99.90;;;;;;5015201;28;20986;-59
2021/10/25 02:33:23;;;;;;;9.13;8.23;;;7.10;99.90;;;;;;5014005;28;20419;-58
2021/10/25 02:35:49;;;;;;;9.10;8.10;;;7.20;99.90;;;;;;5015089;28;20205;-56
2021/10/25 02:38:15;;;;;;;9.27;8.37;;;7.10;99.90;;;;;;5013935;28;20418;-59
2021/10/25 02:40:41;;;;;;;10.73;9.20;;;7.10;99.90;;;;;;5014600;28;20972;-57
2021/10/25 02:43:07;;;;;;;12.50;8.87;;;7.00;99.90;;;;;;5015101;28;20204;-58
2021/10/25 02:45:34;;;;;;;9.40;8.50;;;7.00;99.90;;;;;;5032817;28;20449;-57
2021/10/25 02:48:01;;;;;;;8.33;7.00;;;7.00;99.90;;;;;;5035029;28;20464;-55
2021/10/25 02:50:26;;;;;;;8.73;7.93;;;7.00;99.90;;;;;;5034624;28;20418;-57
2021/10/25 02:52:52;;;;;;;9.30;8.27;;;7.00;99.90;;;;;;5034274;28;20417;-57
2021/10/25 02:55:18;;;;;;;7.57;6.90;;;6.90;99.90;;;;;;5034027;28;20644;-59
2021/10/25 02:57:43;;;;;;;8.60;7.80;;;6.90;99.90;;;;;;5035142;28;20178;-58
2021/10/25 03:00:13;;;;;;;10.07;8.60;;;6.90;99.90;;;;;;5034921;28;20172;-57
2021/10/25 03:02:39;;;;;;;8.30;7.10;;;6.90;99.90;;;;;;5020777;28;20185;-58
2021/10/25 03:05:06;;;;;;;10.60;7.93;;;6.80;99.90;;;;;;4995248;28;20449;-57
2021/10/25 03:07:32;;;;;;;8.77;7.90;;;6.80;99.90;;;;;;4994958;28;20420;-58
2021/10/25 03:09:58;;;;;;;8.87;7.97;;;6.80;99.90;;;;;;5009737;28;20419;-58
2021/10/25 03:12:24;;;;;;;7.63;6.90;;;6.80;99.90;;;;;;5014568;28;20439;-60
2021/10/25 03:14:50;;;;;;;8.33;7.43;;;6.90;99.90;;;;;;5014715;28;20454;-59
2021/10/25 03:17:16;;;;;;;7.90;7.20;;;6.80;99.90;;;;;;5015448;28;20549;-59
2021/10/25 03:19:42;;;;;;;9.47;8.47;;;6.80;99.90;;;;;;5014417;28;20449;-54
2021/10/25 03:22:08;;;;;;;8.13;7.33;;;6.80;99.90;;;;;;5014572;28;20187;-60
2021/10/25 03:24:34;;;;;;;7.77;7.00;;;6.80;99.90;;;;;;5014594;28;20311;-57
2021/10/25 03:27:00;;;;;;;9.23;8.33;;;6.80;99.90;;;;;;5014250;28;20403;-59
2021/10/25 03:29:26;;;;;;;7.90;7.10;;;6.70;99.90;;;;;;5014379;28;20403;-56
2021/10/25 03:31:52;;;;;;;7.53;6.83;;;6.70;99.90;;;;;;5014347;28;20916;-59
2021/10/25 03:34:18;;;;;;;8.00;7.30;;;6.70;99.90;;;;;;5014373;28;20196;-59
2021/10/25 03:36:46;;;;;;;8.43;7.67;;;6.70;99.90;;;;;;5014023;28;20662;-59
2021/10/25 03:39:13;;;;;;;9.73;8.73;;;6.70;99.90;;;;;;5013969;28;20411;-59
2021/10/25 03:41:42;;;;;;;7.07;6.37;;;6.60;99.90;;;;;;5013667;28;20951;-58
2021/10/25 03:44:22;;;;;;;8.00;6.80;;;6.60;99.90;;;;;;5020342;28;20775;-59
2021/10/25 03:46:55;;;;;;;8.63;7.60;;;6.60;99.90;;;;;;5033612;28;20390;-60
2021/10/25 03:49:38;;;;;;;9.70;7.50;;;6.60;99.90;;;;;;5033598;28;20409;-58
2021/10/25 03:52:22;;;;;;;9.83;7.80;;;6.60;99.90;;;;;;5032196;28;20447;-56
2021/10/25 03:55:01;;;;;;;8.27;7.30;;;6.50;99.90;;;;;;5033601;28;20412;-60
2021/10/25 04:27:30;;;;;;;7.30;6.60;;;6.30;99.90;;;;;;5013550;28;20407;-58
2021/10/25 04:30:03;;;;;;;10.07;9.07;;;6.30;99.90;;;;;;5013592;28;20481;-58
2021/10/25 04:32:28;;;;;;;9.80;8.30;;;6.40;99.90;;;;;;5013186;28;20435;-56
2021/10/25 04:34:54;;;;;;;10.73;9.60;;;6.50;99.90;;;;;;5013296;28;20410;-59
2021/10/25 04:37:19;;;;;;;13.07;10.57;;;6.40;99.90;;;;;;5013279;28;20662;-57
2021/10/25 04:39:45;;;;;;;10.30;9.30;;;6.40;99.90;;;;;;5013269;28;20183;-57
2021/10/25 04:42:16;;;;;;;11.50;9.70;;;6.50;99.90;;;;;;5011899;28;20275;-53
2021/10/25 04:44:42;;;;;;;11.83;10.60;;;6.40;99.90;;;;;;5014146;28;20172;-54
2021/10/25 04:47:07;;;;;;;12.87;11.70;;;6.40;99.90;;;;;;5013251;28;20418;-55
2021/10/25 04:49:33;;;;;;;12.23;11.13;;;6.30;99.90;;;;;;5030035;28;20921;-57
2021/10/25 04:51:59;;;;;;;12.63;11.43;;;6.20;99.90;;;;;;5032709;28;20187;-57
2021/10/25 04:54:24;;;;;;;12.67;11.37;;;6.30;99.90;;;;;;5033529;28;20691;-59
2021/10/25 04:56:50;;;;;;;13.60;12.20;;;6.40;99.90;;;;;;5032566;28;20195;-56
2021/10/25 04:59:17;;;;;;;13.47;12.23;;;6.30;99.90;;;;;;5033054;28;20191;-57
2021/10/25 05:01:43;;;;;;;16.10;13.97;;;6.30;99.90;;;;;;5015894;28;20597;-54
2021/10/25 05:04:08;;;;;;;14.43;12.70;;;6.30;99.90;;;;;;5013100;28;20435;-57
2021/10/25 05:06:34;;;;;;;14.50;13.10;;;6.30;99.90;;;;;;5012740;28;20443;-58
2021/10/25 05:09:00;;;;;;;12.83;11.53;;;6.30;99.90;;;;;;5009714;28;20176;-57
2021/10/25 05:11:25;;;;;;;14.13;12.73;;;6.20;99.90;;;;;;5012734;28;20242;-58
2021/10/25 05:13:51;;;;;;;12.27;11.07;;;6.10;99.90;;;;;;5010043;28;20547;-55
2021/10/25 05:16:16;;;;;;;11.37;10.37;;;6.10;99.90;;;;;;5012875;28;20200;-57
2021/10/25 05:18:42;;;;;;;12.07;11.03;;;6.20;99.90;;;;;;5016828;28;20234;-55
2021/10/25 05:21:08;;;;;;;12.57;11.37;;;6.20;99.90;;;;;;5016868;28;20242;-59
2021/10/25 05:23:33;;;;;;;14.27;12.33;;;6.30;99.90;;;;;;5016641;28;20395;-55
2021/10/25 05:25:59;;;;;;;12.03;10.83;;;6.30;99.90;;;;;;5016028;28;20168;-57
2021/10/25 05:28:25;;;;;;;13.70;12.30;;;6.40;99.90;;;;;;5016717;28;20179;-56
2021/10/25 05:30:50;;;;;;;14.37;12.87;;;6.30;99.90;;;;;;5016335;28;20188;-58
2021/10/25 05:33:16;;;;;;;14.70;13.30;;;6.30;99.90;;;;;;5016399;28;20203;-55
2021/10/25 05:35:42;;;;;;;12.23;11.03;;;6.30;99.90;;;;;;5016706;28;20196;-58
2021/10/25 05:38:08;;;;;;;11.47;10.37;;;6.30;99.90;;;;;;5017486;28;20173;-58
2021/10/25 05:40:33;;;;;;;12.00;10.80;;;6.30;99.90;;;;;;4995989;28;20829;-57
2021/10/25 05:43:01;;;;;;;12.40;11.10;;;6.30;99.90;;;;;;5045880;23;20224;-58
2021/10/25 05:45:28;;;;;;;11.30;10.30;;;6.20;99.90;;;;;;5032458;28;20178;-59
2021/10/25 05:47:54;;;;;;;15.90;13.63;;;6.10;99.90;;;;;;5036564;28;20441;-59
2021/10/25 05:50:19;;;;;;;13.57;12.20;;;6.00;99.90;;;;;;5036297;28;20882;-60
2021/10/25 05:52:45;;;;;;;14.57;13.07;;;6.00;99.90;;;;;;5036544;28;20659;-58
2021/10/25 05:55:12;;;;;;;16.33;12.60;;;6.10;99.90;;;;;;5035749;28;20155;-60
2021/10/25 05:57:38;;;;;;;13.60;12.27;;;6.10;99.90;;;;;;5036141;28;20198;-59
2021/10/25 06:00:05;;;;;;;13.70;12.27;;;6.20;99.90;;;;;;5035921;28;20785;-57
2021/10/25 06:02:35;;;;;;;16.00;12.67;;;6.30;99.90;;;;;;5035891;28;20548;-59
2021/10/25 06:05:01;;;;;;;13.43;12.13;;;6.30;99.90;;;;;;5035806;28;20394;-59
2021/10/25 06:07:27;;;;;;;12.57;11.20;;;6.40;99.90;;;;;;5035841;28;20453;-59
2021/10/25 06:09:52;;;;;;;13.50;12.20;;;6.40;99.90;;;;;;5022205;28;20924;-58
2021/10/25 06:12:19;;;;;;;11.70;10.50;;;6.40;99.90;;;;;;5015674;28;20187;-58
2021/10/25 06:14:47;;;;;;;12.93;11.40;;;6.40;99.90;;;;;;4999144;28;20223;-58
2021/10/25 06:17:59;;;;;;;13.73;12.43;;;6.50;99.90;;;;;;5015956;28;20817;-58
2021/10/25 06:20:00;;;;;;;12.07;10.83;;;6.50;99.90;;;;;;5001914;28;20921;-57
2021/10/25 06:22:28;;;;;;;11.47;10.37;;;6.50;99.90;;;;;;5015973;28;20486;-59
2021/10/25 06:24:54;;;;;;;11.23;10.10;;;6.60;99.90;;;;;;5015548;28;20665;-58
2021/10/25 06:27:19;;;;;;;13.00;11.70;;;6.50;99.90;;;;;;5015405;28;20407;-57
2021/10/25 06:29:45;;;;;;;11.10;10.00;;;6.60;99.90;;;;;;5014771;28;20203;-58
2021/10/25 06:32:11;;;;;;;13.30;10.47;;;6.60;99.90;;;;;;5015809;28;20698;-57
2021/10/25 06:34:42;;;;;;;11.40;10.40;;;6.60;99.90;;;;;;5015701;28;20165;-57
2021/10/25 06:37:08;;;;;;;12.17;10.20;;;6.60;99.90;;;;;;5015354;28;20184;-58
2021/10/25 06:39:38;;;;;;;10.33;9.33;;;6.60;99.90;;;;;;5015633;28;20415;-58
2021/10/25 06:42:06;;;;;;;11.07;9.87;;;6.60;99.90;;;;;;5014688;28;20439;-57
2021/10/25 06:44:35;;;;;;;11.70;10.00;;;6.60;99.90;;;;;;5015553;28;20411;-58
2021/10/25 06:47:01;;;;;;;11.70;10.53;;;6.80;99.90;;;;;;5015149;28;20411;-58
2021/10/25 06:49:28;;;;;;;11.70;10.60;;;6.80;99.90;;;;;;5015647;28;20408;-56
2021/10/25 06:51:55;;;;;;;11.40;10.30;;;6.80;99.90;;;;;;5015393;28;20200;-58
2021/10/25 06:54:21;;;;;;;13.23;11.83;;;6.80;99.90;;;;;;5015431;28;20465;-58
2021/10/25 06:56:46;;;;;;;11.30;10.20;;;6.90;99.90;;;;;;5014671;28;20960;-57
2021/10/25 06:59:12;;;;;;;13.10;9.43;;;6.90;99.90;;;;;;5015037;28;20169;-59
2021/10/25 07:01:38;;;;;;;9.63;8.47;;;7.00;99.90;;;;;;4996996;28;20198;-59
2021/10/25 07:04:04;;;;;;;11.00;10.10;;;7.10;99.90;;;;;;5014858;28;20164;-57
2021/10/25 07:06:31;;;;;;;12.20;10.90;;;7.10;99.90;;;;;;5014892;28;20168;-60
2021/10/25 07:08:57;;;;;;;12.43;10.10;;;7.20;99.90;;;;;;5014891;28;21015;-59
2021/10/25 07:11:23;;;;;;;12.43;11.13;;;7.20;99.90;;;;;;5014445;28;20507;-59
2021/10/25 07:13:50;;;;;;;10.53;9.60;;;7.20;99.90;;;;;;5015221;28;20163;-59
2021/10/25 07:19:15;;;;;;;10.40;9.30;;;7.30;99.90;;;;;;5015512;28;20404;-59
2021/10/25 07:21:47;;;;;;;11.10;9.90;;;7.40;99.90;;;;;;5013854;28;20526;-57
2021/10/25 08:00:16;;;;;;;10.40;9.03;;;9.50;99.90;;;;;;4995785;28;20442;-58
2021/10/25 08:03:07;;;;;;;8.93;8.03;;;9.70;99.90;;;;;;4995029;28;20442;-59
2021/10/25 08:08:29;;;;;;;9.73;8.77;;;10.10;99.90;;;;;;4994757;28;20470;-58
2021/10/25 08:11:00;;;;;;;9.57;8.57;;;10.40;99.90;;;;;;4993768;28;20785;-58
2021/10/25 08:13:31;;;;;;;10.97;8.97;;;10.60;99.90;;;;;;4994446;28;20742;-59
2021/10/25 08:15:58;;;;;;;9.70;8.50;;;10.60;99.90;;;;;;4993982;28;20944;-58
2021/10/25 08:18:38;;;;;;;12.93;9.93;;;10.70;99.90;;;;;;4993928;28;20439;-58
2021/10/25 08:21:03;;;;;;;9.87;8.07;;;10.90;99.90;;;;;;4994167;28;20389;-57
2021/10/25 08:23:29;;;;;;;12.27;8.87;;;11.10;99.90;;;;;;4993828;28;20479;-58
2021/10/25 08:25:55;;;;;;;9.57;8.57;;;11.20;99.90;;;;;;4993884;28;20179;-59
2021/10/25 08:28:21;;;;;;;12.10;9.57;;;11.30;99.90;;;;;;4993991;28;20187;-58
2021/10/25 08:30:48;;;;;;;10.23;9.23;;;11.40;99.90;;;;;;4994245;28;20174;-58
2021/10/25 08:41:29;;;;;;;10.40;8.60;;;11.90;99.90;;;;;;4952842;29;20639;-58
2021/10/25 08:43:56;;;;;;;9.53;8.20;;;11.90;99.90;;;;;;4953324;29;20507;-58
2021/10/25 08:46:25;;;;;;;9.57;8.10;;;12.00;99.90;;;;;;4982345;28;20441;-56
2021/10/25 08:48:51;;;;;;;8.80;7.50;;;12.10;99.90;;;;;;5013795;28;20906;-58
2021/10/25 08:51:17;;;;;;;9.67;8.67;;;12.20;99.90;;;;;;5013293;28;20423;-59
2021/10/25 08:53:43;;;;;;;14.23;8.90;;;12.10;99.90;;;;;;5017485;28;20421;-59
2021/10/25 08:56:09;;;;;;;8.60;7.60;;;12.20;99.90;;;;;;5017092;28;20554;-59
2021/10/25 08:58:36;;;;;;;9.17;8.27;;;12.20;99.90;;;;;;5017301;28;20407;-58
2021/10/25 09:01:03;;;;;;;8.87;8.00;;;12.30;99.90;;;;;;5017532;28;20411;-59
2021/10/25 09:03:29;;;;;;;12.10;10.03;;;12.30;99.90;;;;;;5017511;28;20435;-58
2021/10/25 09:06:02;;;;;;;10.30;7.97;;;12.30;99.90;;;;;;5016778;28;20414;-57
2021/10/25 09:08:28;;;;;;;10.00;9.00;;;12.30;99.90;;;;;;5017477;28;20239;-59
2021/10/25 09:10:56;;;;;;;13.63;9.83;;;12.20;99.90;;;;;;5016953;28;20440;-58
2021/10/25 09:13:24;;;;;;;15.53;10.10;;;12.10;99.90;;;;;;5019799;28;20784;-58
2021/10/25 09:15:53;;;;;;;11.50;10.40;;;12.10;99.90;;;;;;5016892;28;20447;-57
2021/10/25 09:18:25;;;;;;;13.03;10.90;;;12.10;99.90;;;;;;5017765;28;20906;-59
2021/10/25 09:20:52;;;;;;;12.33;10.57;;;12.10;99.90;;;;;;5017338;28;20396;-58
2021/10/25 09:23:21;;;;;;;13.80;10.27;;;11.90;99.90;;;;;;5017131;28;20482;-59
2021/10/25 09:25:58;;;;;;;12.23;10.97;;;12.00;99.90;;;;;;5017188;28;20464;-55
2021/10/25 09:28:28;;;;;;;11.13;9.80;;;12.10;99.90;;;;;;5016887;28;20406;-57
2021/10/25 09:30:57;;;;;;;15.27;10.97;;;12.30;99.90;;;;;;5016777;28;20499;-58
2021/10/25 09:33:25;;;;;;;12.17;10.93;;;12.40;99.90;;;;;;5017595;28;20474;-58
2021/10/25 09:35:59;;;;;;;13.60;11.33;;;12.60;99.90;;;;;;5016780;28;20542;-56
2021/10/25 09:38:39;;;;;;;11.87;10.57;;;12.50;99.90;;;;;;5016721;28;20391;-57
2021/10/25 09:41:33;;;;;;;13.70;11.00;;;12.60;99.90;;;;;;5015989;28;20801;-58
2021/10/25 09:49:34;;;;;;;9.40;8.47;;;13.30;99.90;;;;;;5016466;28;20772;-58
2021/10/25 09:52:03;;;;;;;11.97;9.20;;;13.60;99.90;;;;;;5016340;28;20492;-58
2021/10/25 09:54:29;;;;;;;9.60;8.70;;;13.90;99.90;;;;;;5016285;28;20436;-57
2021/10/25 09:57:05;;;;;;;8.57;7.77;;;14.30;99.90;;;;;;5016282;28;20970;-56
2021/10/25 09:59:51;;;;;;;9.83;8.50;;;14.40;99.90;;;;;;5016273;28;20402;-59
2021/10/25 10:02:18;;;;;;;10.57;8.30;;;14.30;99.90;;;;;;5015831;28;20437;-56
2021/10/25 10:04:46;;;;;;;10.73;9.47;;;14.50;99.90;;;;;;5016422;28;20442;-58
2021/10/25 10:07:16;;;;;;;9.73;8.73;;;14.70;99.90;;;;;;5016206;28;20413;-59
2021/10/25 10:09:48;;;;;;;13.03;8.60;;;14.90;99.90;;;;;;5016247;28;20424;-58
2021/10/25 10:12:19;;;;;;;9.70;8.70;;;15.00;99.90;;;;;;4998233;28;20428;-58
2021/10/25 10:14:50;;;;;;;10.57;7.43;;;15.00;99.90;;;;;;5016330;28;20402;-58
2021/10/25 10:17:23;;;;;;;9.60;8.00;;;15.30;99.90;;;;;;5016041;28;20500;-59
2021/10/25 10:19:51;;;;;;;10.20;8.07;;;15.40;99.90;;;;;;5015958;28;20454;-58
2021/10/25 10:22:20;;;;;;;9.00;8.00;;;15.50;99.90;;;;;;5015691;28;20859;-58
2021/10/25 10:24:50;;;;;;;8.50;7.37;;;15.70;99.90;;;;;;5016072;28;20414;-59
2021/10/25 10:27:20;;;;;;;9.53;8.43;;;15.80;99.90;;;;;;5015500;28;20455;-59
2021/10/25 10:29:54;;;;;;;7.23;5.90;;;16.00;99.90;;;;;;5015930;28;20477;-57
2021/10/25 10:32:21;;;;;;;11.03;7.37;;;16.20;99.70;;;;;;5015535;28;20430;-58
2021/10/25 10:34:50;;;;;;;10.90;7.67;;;16.30;99.70;;;;;;5015389;28;20460;-59
2021/10/25 10:37:22;;;;;;;8.97;6.67;;;16.10;99.80;;;;;;5015584;28;20461;-54
2021/10/25 10:39:58;;;;;;;9.30;7.07;;;16.10;99.90;;;;;;5015428;28;20508;-57
2021/10/25 10:42:28;;;;;;;12.37;6.93;;;16.10;99.90;;;;;;5014841;28;20448;-58
2021/10/25 10:45:00;;;;;;;11.87;9.00;;;16.10;99.90;;;;;;5015409;28;20455;-58
2021/10/25 10:47:30;;;;;;;18.43;8.83;;;16.40;99.90;;;;;;5015805;28;20396;-58
2021/10/25 10:49:57;;;;;;;14.53;8.00;;;17.60;99.50;;;;;;5015711;28;20443;-58
2021/10/25 10:52:39;;;;;;;5.87;5.27;;;19.00;98.00;;;;;;5015563;28;20524;-57
2021/10/25 10:55:33;;;;;;;15.87;8.07;;;20.20;94.60;;;;;;5015760;28;20398;-57
2021/10/25 11:00:49;;;;;;;8.70;7.77;;;21.90;90.90;;;;;;5015404;28;20750;-58
2021/10/25 11:03:21;;;;;;;8.80;7.57;;;21.40;91.10;;;;;;5015927;28;20476;-55
2021/10/25 11:06:10;;;;;;;7.93;7.13;;;20.60;91.60;;;;;;5015407;28;20407;-58
2021/10/25 11:08:57;;;;;;;9.00;7.80;;;19.80;93.10;;;;;;5015145;28;20803;-57
2021/10/25 11:11:23;;;;;;;8.00;7.20;;;19.50;93.70;;;;;;5015126;28;20476;-58
2021/10/25 11:14:01;;;;;;;8.37;7.23;;;20.20;92.90;;;;;;5014491;28;20411;-58
2021/10/25 11:16:51;;;;;;;9.80;8.07;;;21.10;92.30;;;;;;5014194;28;20951;-57
2021/10/25 11:19:17;;;;;;;12.83;8.30;;;21.80;90.80;;;;;;5014723;28;20387;-58
2021/10/25 11:21:51;;;;;;;9.33;8.27;;;22.10;90.20;;;;;;5014870;28;20423;-57
2021/10/25 11:24:18;;;;;;;10.03;8.00;;;22.30;89.20;;;;;;5014592;28;20218;-58
2021/10/25 11:26:46;;;;;;;10.17;7.70;;;22.80;87.40;;;;;;5014282;28;20494;-58
2021/10/25 11:29:16;;;;;;;13.13;9.30;;;23.60;84.70;;;;;;5024650;28;20791;-57
2021/10/25 11:31:49;;;;;;;11.00;8.10;;;24.50;82.10;;;;;;5016094;28;20426;-57
2021/10/25 11:34:23;;;;;;;8.57;7.77;;;23.20;83.80;;;;;;5014955;28;20407;-57
2021/10/25 11:37:01;;;;;;;10.00;7.40;;;23.50;82.90;;;;;;5015182;28;20449;-58
2021/10/25 11:39:29;;;;;;;7.70;6.90;;;24.30;80.90;;;;;;5015464;28;20926;-58
2021/10/25 11:41:54;;;;;;;10.03;7.23;;;26.30;75.10;;;;;;5032209;23;20581;-57
2021/10/25 11:44:20;;;;;;;7.13;6.33;;;26.60;72.40;;;;;;5034391;28;20513;-56
2021/10/25 11:46:46;;;;;;;8.10;6.30;;;26.70;69.60;;;;;;5033652;28;20166;-52
2021/10/25 11:49:19;;;;;;;6.87;6.23;;;26.90;68.60;;;;;;5033545;28;20251;-56
2021/10/25 11:51:52;;;;;;;6.30;5.70;;;27.50;66.80;;;;;;5033706;28;20199;-58
2021/10/25 11:54:18;;;;;;;8.83;5.47;;;28.40;64.00;;;;;;5033860;28;20391;-57
2021/10/25 11:56:55;;;;;;;8.27;5.63;;;28.70;61.40;;;;;;5033322;28;20969;-58
2021/10/25 11:59:22;;;;;;;6.17;5.43;;;29.00;59.10;;;;;;5033908;28;20573;-57
2021/10/25 12:01:49;;;;;;;7.43;5.80;;;29.60;58.50;;;;;;5033323;28;20438;-58
2021/10/25 12:04:20;;;;;;;6.53;5.93;;;28.90;58.40;;;;;;5033537;28;20441;-58
2021/10/25 12:06:54;;;;;;;6.00;5.40;;;30.60;57.30;;;;;;5016114;28;20501;-57
2021/10/25 12:09:21;;;;;;;8.07;5.83;;;31.80;53.40;;;;;;5033300;28;20947;-56
2021/10/25 12:14:33;;;;;;;10.53;5.90;;;31.30;52.20;;;;;;5033171;28;20797;-58
2021/10/25 12:16:59;;;;;;;7.20;5.23;;;30.90;53.30;;;;;;5033302;28;20426;-57
2021/10/25 12:19:27;;;;;;;7.73;5.10;;;31.20;52.00;;;;;;5033099;28;20413;-55
2021/10/25 12:21:53;;;;;;;6.60;5.20;;;31.30;51.80;;;;;;5033300;28;20418;-58
2021/10/25 12:24:20;;;;;;;6.30;5.50;;;32.10;50.50;;;;;;5033199;28;20485;-58
2021/10/25 12:26:57;;;;;;;6.50;5.90;;;31.70;50.40;;;;;;5032099;28;20477;-58
2021/10/25 12:29:23;;;;;;;4.60;4.10;;;32.20;49.80;;;;;;5033087;28;20443;-58
2021/10/25 12:31:50;;;;;;;5.90;5.30;;;30.60;50.70;;;;;;5033118;28;20505;-58
2021/10/25 12:34:16;;;;;;;6.53;3.90;;;30.20;53.20;;;;;;5032896;28;20639;-54
2021/10/25 12:36:45;;;;;;;5.17;3.80;;;31.90;50.90;;;;;;5033975;28;20533;-56
2021/10/25 12:39:19;;;;;;;4.43;3.43;;;32.90;49.40;;;;;;5033186;28;20202;-58
2021/10/25 12:41:56;;;;;;;4.00;3.60;;;32.20;50.10;;;;;;5032727;28;20497;-58
2021/10/25 12:44:23;;;;;;;7.77;4.20;;;30.50;52.70;;;;;;5033283;28;20386;-54
2021/10/25 12:46:50;;;;;;;4.90;3.60;;;28.00;57.40;;;;;;5033257;28;20414;-54
2021/10/25 12:49:21;;;;;;;4.47;3.30;;;25.30;64.90;;;;;;5033168;28;20410;-57
2021/10/25 12:51:46;;;;;;;4.53;3.57;;;24.20;69.20;;;;;;5033087;28;20790;-58
2021/10/25 12:54:14;;;;;;;5.07;3.60;;;23.40;71.60;;;;;;5032975;28;20497;-57
2021/10/25 12:56:40;;;;;;;3.47;3.17;;;22.50;77.30;;;;;;5032592;28;20187;-55
2021/10/25 12:59:09;;;;;;;4.27;3.60;;;22.20;79.20;;;;;;5032803;28;20412;-56
2021/10/25 13:01:35;;;;;;;5.53;3.83;;;22.00;81.10;;;;;;5032776;28;20395;-57
2021/10/25 13:04:03;;;;;;;5.40;3.90;;;22.30;81.40;;;;;;5016964;28;20410;-55
2021/10/25 13:06:31;;;;;;;4.47;3.37;;;23.70;79.30;;;;;;5013123;28;20411;-56
2021/10/25 13:09:01;;;;;;;4.37;3.97;;;26.30;72.00;;;;;;5019882;28;20422;-57
2021/10/25 13:11:28;;;;;;;3.63;3.33;;;28.30;65.00;;;;;;5033228;28;20972;-55
2021/10/25 13:13:57;;;;;;;5.57;4.20;;;30.20;59.30;;;;;;5032396;28;20475;-58
2021/10/25 13:16:26;;;;;;;4.07;3.67;;;31.40;58.00;;;;;;5032834;28;20516;-59
2021/10/25 13:18:51;;;;;;;3.70;3.40;;;32.50;55.70;;;;;;5032889;28;20410;-53
2021/10/25 13:21:17;;;;;;;3.87;3.47;;;32.90;50.90;;;;;;5032596;28;20406;-59
2021/10/25 13:23:43;;;;;;;3.57;2.80;;;32.50;51.90;;;;;;5032585;28;20195;-58
2021/10/25 13:26:10;;;;;;;3.90;2.80;;;32.50;50.90;;;;;;5033433;28;20410;-58
2021/10/25 13:28:35;;;;;;;2.80;2.47;;;31.60;50.60;;;;;;5032222;28;20664;-53
2021/10/25 13:31:01;;;;;;;4.57;2.73;;;31.20;51.30;;;;;;5032858;28;20405;-58
2021/10/25 13:33:33;;;;;;;3.80;2.50;;;31.00;52.10;;;;;;5032287;28;20192;-57
2021/10/25 13:35:59;;;;;;;4.33;3.00;;;30.10;51.30;;;;;;5033087;28;20189;-56
2021/10/25 13:38:24;;;;;;;2.50;2.30;;;30.30;50.40;;;;;;5034281;28;20481;-58
2021/10/25 13:40:50;;;;;;;2.87;2.40;;;31.00;50.10;;;;;;5036015;28;20178;-58
2021/10/25 13:43:17;;;;;;;4.37;2.70;;;;;;;;;;5035626;28;20600;-53
2021/10/25 13:45:45;;;;;;;3.30;2.30;;;;;;;;;;5036292;28;20212;-58
2021/10/25 13:48:11;;;;;;;3.80;2.57;;;;;;;;;;5036410;28;21021;-56
2021/10/25 13:50:37;;;;;;;2.43;2.23;;;;;;;;;;5036088;28;20477;-55
2021/10/25 13:53:03;;;;;;;3.90;2.37;;;;;;;;;;5035847;28;20418;-56
2021/10/25 13:55:30;;;;;;;2.90;2.60;;;;;;;;;;5036069;28;20544;-56
2021/10/25 13:57:56;;;;;;;2.80;2.13;;;;;;;;;;5035907;28;20449;-52
2021/10/25 14:00:22;;;;;;;3.40;2.10;;;;;;;;;;5036200;28;20498;-57
2021/10/25 14:02:48;;;;;;;3.73;2.23;;;;;;;;;;5035950;28;20414;-52
2021/10/25 14:05:18;;;;;;;2.90;2.53;;;;;;;;;;5018895;28;20414;-59
2021/10/25 14:07:45;;;;;;;2.47;2.10;;;;;;;;;;5035499;28;20410;-57
2021/10/25 14:12:51;;;;;;;2.93;1.77;;;;;;;;;;5035801;28;20472;-58
2021/10/25 14:17:45;;;;;;;3.60;2.30;;;;;;;;;;5035784;28;20495;-58
2021/10/25 14:20:12;;;;;;;3.20;2.90;;;;;;;;;;5034915;28;20892;-57
2021/10/25 14:22:38;;;;;;;3.87;1.90;;;;;;;;;;5025215;28;20427;-55
2021/10/25 14:25:05;;;;;;;4.93;2.53;;;;;;;;;;5015817;28;20429;-57
2021/10/25 14:27:33;;;;;;;2.97;2.50;;;;;;;;;;5015713;28;20410;-57
2021/10/25 14:29:59;;;;;;;4.00;2.53;;;;;;;;;;5015374;28;20553;-57
2021/10/25 14:32:26;;;;;;;3.47;2.93;;;;;;;;;;5015227;28;20431;-57